createdAt,value
2022-10-20T00:01:13.486Z,86.62
2022-10-20T00:03:41.750Z,86.55
2022-10-20T00:06:11.730Z,87.05
2022-10-20T00:08:40.693Z,87.16
2022-10-20T00:11:09.309Z,87.30
2022-10-20T00:13:37.445Z,87.13
2022-10-20T00:16:06.170Z,87.53
2022-10-20T00:18:35.763Z,87.95
2022-10-20T00:21:07.065Z,88.03
2022-10-20T00:23:35.165Z,87.87
2022-10-20T00:26:05.292Z,87.52
2022-10-20T00:28:33.740Z,87.89
2022-10-20T00:31:02.196Z,87.85
2022-10-20T00:33:30.178Z,87.98
2022-10-20T00:36:01.699Z,88.40
2022-10-20T00:38:30.145Z,88.43
2022-10-20T00:41:00.126Z,88.49
2022-10-20T00:43:42.733Z,88.90
2022-10-20T00:46:12.415Z,88.85
2022-10-20T00:48:41.113Z,88.87
2022-10-20T00:51:10.625Z,88.85
2022-10-20T00:53:38.802Z,89.08
2022-10-20T00:56:07.097Z,89.37
2022-10-20T00:58:36.508Z,89.34
2022-10-20T01:01:05.026Z,89.62
2022-10-20T01:03:40.966Z,89.42
2022-10-20T01:06:10.306Z,89.63
2022-10-20T01:08:39.768Z,89.83
2022-10-20T01:11:19.091Z,90.06
2022-10-20T01:14:08.304Z,90.30
2022-10-20T01:16:46.072Z,90.46
2022-10-20T01:19:34.254Z,90.47
2022-10-20T01:22:18.005Z,90.40
2022-10-20T01:25:08.544Z,90.62
2022-10-20T01:27:40.907Z,90.39
2022-10-20T01:30:12.527Z,90.34
2022-10-20T01:33:04.678Z,90.95
2022-10-20T01:35:43.714Z,90.99
2022-10-20T01:38:21.272Z,90.94
2022-10-20T01:40:52.614Z,90.73
2022-10-20T01:43:25.749Z,91.18
2022-10-20T01:45:55.524Z,91.33
2022-10-20T01:48:28.822Z,91.46
2022-10-20T01:50:57.223Z,91.63
2022-10-20T01:53:25.302Z,91.56
2022-10-20T01:55:55.525Z,91.69
2022-10-20T01:59:06.843Z,92.03
2022-10-20T02:01:55.358Z,91.98
2022-10-20T02:04:31.512Z,92.35
2022-10-20T02:07:06.223Z,92.05
2022-10-20T02:09:39.537Z,92.30
2022-10-20T02:12:11.172Z,92.31
2022-10-20T02:14:42.260Z,92.38
2022-10-20T02:17:14.496Z,92.54
2022-10-20T02:19:44.473Z,92.81
2022-10-20T02:22:15.096Z,93.08
2022-10-20T02:24:45.174Z,92.79
2022-10-20T02:27:15.660Z,93.10
2022-10-20T02:29:49.854Z,93.05
2022-10-20T02:32:19.453Z,93.56
2022-10-20T02:34:47.358Z,93.44
2022-10-20T02:39:45.342Z,93.50
2022-10-20T02:42:13.187Z,93.46
2022-10-20T02:44:41.189Z,93.82
2022-10-20T02:47:10.408Z,93.73
2022-10-20T02:49:38.252Z,93.70
2022-10-20T02:52:06.393Z,94.09
2022-10-20T02:54:34.359Z,93.65
2022-10-20T02:57:02.256Z,94.21
2022-10-20T02:59:30.298Z,93.87
2022-10-20T03:01:58.206Z,94.08
2022-10-20T03:04:27.806Z,94.07
2022-10-20T03:06:55.887Z,94.04
2022-10-20T03:09:23.768Z,93.71
2022-10-20T03:11:51.699Z,93.79
2022-10-20T03:14:19.853Z,93.68
2022-10-20T03:16:47.817Z,93.54
2022-10-20T03:19:15.932Z,92.99
2022-10-20T03:21:46.351Z,92.89
2022-10-20T03:24:14.206Z,93.26
2022-10-20T03:26:42.214Z,92.61
2022-10-20T03:29:10.165Z,92.53
2022-10-20T03:31:38.129Z,92.80
2022-10-20T03:34:06.116Z,92.75
2022-10-20T03:36:34.178Z,92.50
2022-10-20T03:39:03.546Z,92.56
2022-10-20T03:41:31.661Z,92.29
2022-10-20T03:43:59.630Z,92.06
2022-10-20T03:46:27.512Z,92.06
2022-10-20T03:48:55.522Z,92.06
2022-10-20T03:51:23.708Z,92.51
2022-10-20T03:53:51.654Z,92.02
2022-10-20T03:56:22.017Z,92.45
2022-10-20T03:58:50.304Z,92.40
2022-10-20T04:01:20.400Z,92.25
2022-10-20T04:03:48.422Z,92.00
2022-10-20T04:06:16.903Z,91.92
2022-10-20T04:08:44.921Z,92.08
2022-10-20T04:11:13.508Z,92.15
2022-10-20T04:13:42.940Z,92.08
2022-10-20T04:16:10.795Z,91.80
2022-10-20T04:18:38.843Z,92.15
2022-10-20T04:21:07.185Z,92.15
2022-10-20T04:23:35.095Z,91.90
2022-10-20T04:26:09.467Z,92.01
2022-10-20T04:28:37.427Z,91.97
2022-10-20T04:31:07.315Z,92.39
2022-10-20T04:33:35.851Z,92.07
2022-10-20T04:36:06.970Z,92.42
2022-10-20T04:38:35.717Z,92.46
2022-10-20T04:41:05.744Z,92.23
2022-10-20T04:43:34.535Z,92.51
2022-10-20T04:46:07.115Z,92.56
2022-10-20T04:48:38.764Z,92.25
2022-10-20T04:51:09.009Z,92.30
2022-10-20T04:53:37.286Z,92.73
2022-10-20T04:56:06.737Z,92.20
2022-10-20T04:58:35.086Z,92.66
2022-10-20T05:01:03.714Z,92.40
2022-10-20T05:03:31.902Z,92.52
2022-10-20T05:06:11.526Z,92.69
2022-10-20T05:08:40.103Z,92.04
2022-10-20T05:11:08.793Z,92.46
2022-10-20T05:13:37.091Z,92.37
2022-10-20T05:16:05.956Z,92.48
2022-10-20T05:18:34.322Z,92.46
2022-10-20T05:21:09.444Z,92.67
2022-10-20T05:23:39.954Z,92.26
2022-10-20T05:26:10.466Z,92.19
2022-10-20T05:28:38.332Z,92.45
2022-10-20T05:31:08.279Z,92.44
2022-10-20T05:33:37.259Z,92.69
2022-10-20T05:36:10.005Z,92.84
2022-10-20T05:38:40.983Z,92.65
2022-10-20T05:41:10.523Z,93.03
2022-10-20T05:43:38.755Z,92.83
2022-10-20T05:46:07.363Z,93.17
2022-10-20T05:48:39.373Z,92.88
2022-10-20T05:51:13.895Z,92.59
2022-10-20T05:53:47.074Z,92.87
2022-10-20T05:56:17.957Z,93.27
2022-10-20T05:58:47.351Z,93.51
2022-10-20T06:01:19.214Z,93.31
2022-10-20T06:03:50.253Z,93.09
2022-10-20T06:06:18.745Z,93.25
2022-10-20T06:08:48.685Z,93.11
2022-10-20T06:11:17.017Z,93.13
2022-10-20T06:13:48.467Z,93.67
2022-10-20T06:16:22.547Z,93.61
2022-10-20T06:18:50.673Z,93.30
2022-10-20T06:21:20.332Z,93.48
2022-10-20T06:23:50.279Z,93.87
2022-10-20T06:26:20.076Z,93.83
2022-10-20T06:28:49.567Z,93.74
2022-10-20T06:31:19.241Z,93.78
2022-10-20T06:33:48.106Z,93.42
2022-10-20T06:36:16.806Z,94.45
2022-10-20T06:38:45.682Z,95.75
2022-10-20T06:41:17.359Z,97.42
2022-10-20T06:43:45.923Z,98.25
2022-10-20T06:46:16.141Z,98.53
2022-10-20T06:48:44.795Z,97.83
2022-10-20T06:51:14.763Z,98.32
2022-10-20T06:53:46.532Z,98.54
2022-10-20T06:56:18.128Z,97.47
2022-10-20T06:58:48.438Z,96.78
2022-10-20T07:01:19.312Z,95.74
2022-10-20T07:03:48.828Z,94.89
2022-10-20T07:06:20.029Z,95.00
2022-10-20T07:08:48.428Z,93.07
2022-10-20T07:11:19.455Z,90.60
2022-10-20T07:13:49.454Z,90.15
2022-10-20T07:16:19.227Z,88.31
2022-10-20T07:18:48.430Z,88.20
2022-10-20T07:21:18.697Z,89.00
2022-10-20T07:23:47.570Z,89.16
2022-10-20T07:26:19.046Z,87.98
2022-10-20T07:28:54.650Z,86.75
2022-10-20T07:31:27.099Z,86.38
2022-10-20T07:34:06.880Z,86.34
2022-10-20T07:36:44.429Z,85.37
2022-10-20T07:39:14.234Z,84.50
2022-10-20T07:41:47.420Z,82.43
2022-10-20T07:44:15.860Z,81.50
2022-10-20T07:46:43.922Z,79.81
2022-10-20T07:49:42.452Z,78.16
2022-10-20T07:52:01.328Z,76.72
2022-10-20T07:54:29.363Z,76.42
2022-10-20T07:56:58.685Z,74.50
2022-10-20T07:59:27.042Z,75.12
2022-10-20T08:01:56.251Z,75.53
2022-10-20T08:04:26.811Z,74.76
2022-10-20T08:06:54.992Z,73.62
2022-10-20T08:09:23.013Z,73.27
2022-10-20T08:11:54.616Z,71.60
2022-10-20T08:14:27.781Z,71.26
2022-10-20T08:16:58.247Z,69.72
2022-10-20T08:19:36.724Z,70.31
2022-10-20T08:22:04.719Z,69.27
2022-10-20T08:24:32.819Z,69.36
2022-10-20T08:27:01.744Z,69.18
2022-10-20T08:29:31.081Z,68.20
2022-10-20T08:31:59.205Z,67.84
2022-10-20T08:34:27.585Z,66.85
2022-10-20T08:36:55.504Z,68.23
2022-10-20T08:39:23.768Z,67.23
2022-10-20T08:42:07.920Z,66.29
2022-10-20T08:44:41.271Z,64.62
2022-10-20T08:47:19.356Z,63.40
2022-10-20T08:49:47.907Z,64.03
2022-10-20T08:52:16.562Z,62.96
2022-10-20T08:54:44.530Z,63.72
2022-10-20T08:57:23.234Z,61.95
2022-10-20T08:59:54.521Z,62.27
2022-10-20T09:02:23.635Z,63.25
2022-10-20T09:04:55.141Z,63.20
2022-10-20T09:07:29.841Z,63.94
2022-10-20T09:10:05.927Z,63.82
2022-10-20T09:12:35.014Z,63.51
2022-10-20T09:15:04.519Z,63.16
2022-10-20T09:17:33.108Z,61.46
2022-10-20T09:20:02.407Z,60.48
2022-10-20T09:22:35.703Z,58.88
2022-10-20T09:25:04.915Z,57.43
2022-10-20T09:27:35.558Z,55.80
2022-10-20T09:30:21.088Z,54.97
2022-10-20T09:32:49.774Z,55.57
2022-10-20T09:35:24.929Z,56.44
2022-10-20T09:38:03.793Z,54.82
2022-10-20T09:40:32.695Z,55.50
2022-10-20T09:43:04.023Z,53.84
2022-10-20T09:45:36.073Z,54.21
2022-10-20T09:48:09.173Z,53.31
2022-10-20T09:50:41.463Z,52.64
2022-10-20T09:53:20.235Z,54.06
2022-10-20T09:55:49.901Z,54.10
2022-10-20T09:58:22.895Z,53.71
2022-10-20T10:01:01.231Z,54.09
2022-10-20T10:03:29.442Z,53.37
2022-10-20T10:05:59.091Z,52.72
2022-10-20T10:08:30.704Z,51.97
2022-10-20T10:11:02.566Z,50.63
2022-10-20T10:13:33.442Z,50.83
2022-10-20T10:16:08.562Z,51.05
2022-10-20T10:18:38.927Z,51.59
2022-10-20T10:21:09.613Z,50.55
2022-10-20T10:23:51.272Z,51.00
2022-10-20T10:26:42.469Z,49.93
2022-10-20T10:29:19.937Z,50.70
2022-10-20T10:31:57.201Z,51.11
2022-10-20T10:34:48.785Z,50.31
2022-10-20T10:37:18.100Z,51.68
2022-10-20T10:39:46.595Z,51.30
2022-10-20T10:42:40.397Z,49.96
2022-10-20T10:45:26.555Z,50.00
2022-10-20T10:48:15.247Z,50.96
2022-10-20T10:50:52.589Z,51.22
2022-10-20T10:53:34.726Z,50.74
2022-10-20T10:56:12.358Z,49.73
2022-10-20T10:58:59.988Z,49.56
2022-10-20T11:01:49.482Z,48.90
2022-10-20T11:04:44.461Z,48.08
2022-10-20T11:07:21.231Z,48.11
2022-10-20T11:09:59.535Z,47.79
2022-10-20T11:12:42.130Z,48.37
2022-10-20T11:15:29.030Z,49.81
2022-10-20T11:18:02.357Z,50.75
2022-10-20T11:20:41.001Z,50.30
2022-10-20T11:23:31.509Z,49.10
2022-10-20T11:26:12.360Z,48.58
2022-10-20T11:28:45.282Z,49.33
2022-10-20T11:31:22.650Z,49.83
2022-10-20T11:33:56.626Z,49.33
2022-10-20T11:36:32.933Z,49.12
2022-10-20T11:39:01.404Z,48.61
2022-10-20T11:41:35.603Z,48.35
2022-10-20T11:44:07.869Z,48.62
2022-10-20T11:46:46.556Z,48.96
2022-10-20T11:49:14.662Z,49.33
2022-10-20T11:52:07.552Z,49.29
2022-10-20T11:54:49.301Z,49.53
2022-10-20T11:57:31.917Z,50.09
2022-10-20T12:03:41.172Z,50.95
2022-10-20T12:06:50.352Z,52.48
2022-10-20T12:09:35.553Z,52.51
2022-10-20T12:12:07.969Z,52.64
2022-10-20T12:14:40.532Z,54.02
2022-10-20T12:17:29.492Z,54.50
2022-10-20T12:20:30.967Z,54.23
2022-10-20T12:23:01.655Z,53.63
2022-10-20T12:25:40.742Z,53.84
2022-10-20T12:28:42.650Z,54.82
2022-10-20T12:31:10.873Z,54.51
2022-10-20T12:33:42.448Z,53.80
2022-10-20T12:36:31.011Z,53.99
2022-10-20T12:39:16.128Z,53.74
2022-10-20T12:41:57.614Z,53.66
2022-10-20T12:44:27.625Z,53.63
2022-10-20T12:46:58.526Z,53.68
2022-10-20T12:49:32.353Z,53.96
2022-10-20T12:52:01.731Z,54.06
2022-10-20T12:54:36.560Z,54.59
2022-10-20T12:57:26.647Z,53.58
2022-10-20T12:59:54.890Z,52.90
2022-10-20T13:02:47.677Z,52.36
2022-10-20T13:05:49.448Z,51.52
2022-10-20T13:08:29.363Z,50.29
2022-10-20T13:11:18.197Z,50.12
2022-10-20T13:14:07.124Z,49.56
2022-10-20T13:16:35.773Z,48.73
2022-10-20T13:19:08.837Z,47.94
2022-10-20T13:21:36.814Z,47.55
2022-10-20T13:24:13.689Z,46.63
2022-10-20T13:26:49.690Z,46.68
2022-10-20T13:29:26.244Z,46.78
2022-10-20T13:34:49.382Z,46.70
2022-10-20T13:37:41.428Z,46.76
2022-10-20T13:40:23.388Z,47.03
2022-10-20T13:43:02.364Z,47.03
2022-10-20T13:45:48.304Z,47.01
2022-10-20T13:48:30.034Z,47.52
2022-10-20T13:51:01.770Z,48.78
2022-10-20T13:53:34.080Z,48.86
2022-10-20T13:56:06.814Z,48.43
2022-10-20T13:58:35.702Z,48.73
2022-10-20T14:01:07.573Z,49.47
2022-10-20T14:03:44.550Z,50.49
2022-10-20T14:06:30.674Z,51.69
2022-10-20T14:09:00.755Z,52.63
2022-10-20T14:11:32.985Z,53.18
2022-10-20T14:14:02.332Z,53.58
2022-10-20T14:16:33.008Z,54.06
2022-10-20T14:19:03.006Z,54.35
2022-10-20T14:21:31.098Z,54.83
2022-10-20T14:24:04.180Z,54.86
2022-10-20T14:26:34.444Z,55.30
2022-10-20T14:29:03.841Z,55.29
2022-10-20T14:31:33.428Z,55.92
2022-10-20T14:34:01.336Z,56.21
2022-10-20T14:36:31.192Z,56.46
2022-10-20T14:39:02.036Z,56.52
2022-10-20T14:41:32.377Z,56.84
2022-10-20T14:44:05.223Z,56.96
2022-10-20T14:46:41.130Z,57.34
2022-10-20T14:49:16.524Z,57.60
2022-10-20T14:51:55.035Z,57.58
2022-10-20T14:54:36.286Z,57.94
2022-10-20T14:57:31.495Z,58.21
2022-10-20T15:00:03.763Z,58.17
2022-10-20T15:02:35.563Z,58.43
2022-10-20T15:05:22.536Z,59.01
2022-10-20T15:07:50.606Z,59.39
2022-10-20T15:10:21.846Z,59.32
2022-10-20T15:12:52.941Z,59.34
2022-10-20T15:15:23.953Z,59.98
2022-10-20T15:17:54.447Z,59.91
2022-10-20T15:20:34.593Z,60.72
2022-10-20T15:23:04.443Z,60.74
2022-10-20T15:25:38.349Z,60.73
2022-10-20T15:28:08.113Z,61.48
2022-10-20T15:30:36.444Z,61.32
2022-10-20T15:33:05.772Z,61.68
2022-10-20T15:35:34.720Z,61.67
2022-10-20T15:38:02.707Z,61.95
2022-10-20T15:40:30.537Z,62.47
2022-10-20T15:42:58.421Z,62.48
2022-10-20T15:45:26.804Z,62.68
2022-10-20T15:47:54.686Z,63.26
2022-10-20T15:50:24.951Z,63.85
2022-10-20T15:52:54.242Z,63.58
2022-10-20T15:55:25.870Z,63.94
2022-10-20T15:57:55.439Z,63.91
2022-10-20T16:00:25.733Z,64.82
2022-10-20T16:02:54.001Z,65.05
2022-10-20T16:05:25.259Z,64.97
2022-10-20T16:07:54.647Z,64.99
2022-10-20T16:10:23.599Z,65.58
2022-10-20T16:12:51.865Z,65.89
2022-10-20T16:15:19.959Z,65.96
2022-10-20T16:20:17.465Z,66.43
2022-10-20T16:22:46.864Z,67.14
2022-10-20T16:25:15.077Z,67.17
2022-10-20T16:27:42.978Z,67.12
2022-10-20T16:30:11.530Z,67.58
2022-10-20T16:32:40.113Z,68.36
2022-10-20T16:35:08.678Z,68.67
2022-10-20T16:37:37.114Z,68.54
2022-10-20T16:40:07.693Z,68.92
2022-10-20T16:42:35.560Z,69.95
2022-10-20T16:45:03.672Z,69.92
2022-10-20T16:47:31.570Z,70.49
2022-10-20T16:49:59.431Z,70.54
2022-10-20T16:52:27.474Z,71.18
2022-10-20T16:54:55.314Z,71.62
2022-10-20T16:57:28.481Z,71.96
2022-10-20T17:00:00.005Z,72.42
2022-10-20T17:02:27.863Z,72.69
2022-10-20T17:04:55.810Z,72.48
2022-10-20T17:07:23.804Z,72.67
2022-10-20T17:09:51.638Z,73.02
2022-10-20T17:12:19.691Z,72.99
2022-10-20T17:14:49.109Z,73.85
2022-10-20T17:17:16.999Z,73.72
2022-10-20T17:19:45.130Z,74.05
2022-10-20T17:22:13.111Z,74.68
2022-10-20T17:24:40.957Z,74.82
2022-10-20T17:27:09.172Z,74.55
2022-10-20T17:29:37.393Z,75.73
2022-10-20T17:32:07.181Z,75.42
2022-10-20T17:34:35.475Z,76.00
2022-10-20T17:37:03.396Z,75.78
2022-10-20T17:39:31.384Z,76.02
2022-10-20T17:41:59.377Z,76.32
2022-10-20T17:44:27.534Z,76.88
2022-10-20T17:46:55.391Z,77.23
2022-10-20T17:49:24.668Z,77.27
2022-10-20T17:51:52.635Z,77.49
2022-10-20T17:54:20.669Z,77.58
2022-10-20T17:56:50.681Z,78.14
2022-10-20T17:59:19.137Z,78.14
2022-10-20T18:01:47.226Z,78.08
2022-10-20T18:04:17.240Z,78.46
2022-10-20T18:06:47.187Z,79.11
2022-10-20T18:09:17.383Z,78.73
2022-10-20T18:11:48.315Z,79.22
2022-10-20T18:14:17.096Z,79.09
2022-10-20T18:16:45.894Z,79.37
2022-10-20T18:19:16.071Z,79.97
2022-10-20T18:21:44.032Z,80.06
2022-10-20T18:24:14.848Z,80.08
2022-10-20T18:26:43.403Z,80.80
2022-10-20T18:29:12.788Z,80.51
2022-10-20T18:31:42.565Z,81.43
2022-10-20T18:34:13.195Z,81.75
2022-10-20T18:36:44.961Z,81.97
2022-10-20T18:39:16.065Z,82.19
2022-10-20T18:41:45.684Z,81.98
2022-10-20T18:44:15.353Z,82.55
2022-10-20T18:46:44.638Z,83.12
2022-10-20T18:49:14.462Z,83.15
2022-10-20T18:51:42.866Z,83.68
2022-10-20T18:54:11.085Z,83.47
2022-10-20T18:56:40.350Z,83.85
2022-10-20T18:59:10.382Z,84.35
2022-10-20T19:01:40.245Z,84.70
2022-10-20T19:04:10.131Z,85.01
2022-10-20T19:06:41.070Z,85.08
2022-10-20T19:09:18.824Z,85.34
2022-10-20T19:14:18.502Z,85.98
2022-10-20T19:16:47.865Z,85.93
2022-10-20T19:19:16.925Z,86.27
2022-10-20T19:21:45.077Z,86.04
2022-10-20T19:24:16.395Z,86.52
2022-10-20T19:26:56.995Z,86.54
2022-10-20T19:29:35.971Z,86.94
2022-10-20T19:32:05.977Z,87.31
2022-10-20T19:34:36.548Z,87.26
2022-10-20T19:37:04.960Z,87.65
2022-10-20T19:39:35.757Z,88.15
2022-10-20T19:42:05.577Z,88.30
2022-10-20T19:44:35.852Z,88.37
2022-10-20T19:47:05.056Z,88.50
2022-10-20T19:49:33.517Z,88.46
2022-10-20T19:52:01.771Z,88.43
2022-10-20T19:54:30.193Z,88.82
2022-10-20T19:56:58.403Z,88.97
2022-10-20T19:59:26.553Z,89.43
2022-10-20T20:01:55.827Z,89.55
2022-10-20T20:04:23.856Z,89.62
2022-10-20T20:06:52.361Z,89.90
2022-10-20T20:09:20.287Z,90.02
2022-10-20T20:11:48.193Z,90.20
2022-10-20T20:14:17.996Z,90.85
2022-10-20T20:16:47.054Z,90.95
2022-10-20T20:19:17.716Z,91.78
2022-10-20T20:21:46.336Z,91.60
2022-10-20T20:24:14.838Z,91.29
2022-10-20T20:26:43.425Z,91.54
2022-10-20T20:29:11.687Z,91.56
2022-10-20T20:31:40.515Z,92.14
2022-10-20T20:34:08.492Z,92.42
2022-10-20T20:36:39.511Z,92.80
2022-10-20T20:39:08.546Z,92.77
2022-10-20T20:41:36.666Z,92.57
2022-10-20T20:44:08.273Z,92.45
2022-10-20T20:46:36.780Z,92.48
2022-10-20T20:49:05.115Z,93.00
2022-10-20T20:51:34.099Z,93.12
2022-10-20T20:54:04.169Z,93.35
2022-10-20T20:56:32.471Z,92.90
2022-10-20T20:59:00.511Z,93.31
2022-10-20T21:01:31.707Z,93.35
2022-10-20T21:04:02.136Z,93.07
2022-10-20T21:06:56.650Z,93.89
2022-10-20T21:09:20.205Z,93.93
2022-10-20T21:11:49.162Z,94.10
2022-10-20T21:14:17.170Z,94.04
2022-10-20T21:16:45.574Z,94.39
2022-10-20T21:19:13.861Z,94.94
2022-10-20T21:21:44.550Z,95.20
2022-10-20T21:24:13.836Z,95.17
2022-10-20T21:26:43.657Z,95.35
2022-10-20T21:29:11.857Z,95.96
2022-10-20T21:31:40.889Z,95.71
2022-10-20T21:34:08.832Z,94.95
2022-10-20T21:36:38.683Z,95.63
2022-10-20T21:39:08.996Z,95.23
2022-10-20T21:41:38.603Z,95.48
2022-10-20T21:44:08.673Z,95.20
2022-10-20T21:46:39.339Z,95.28
2022-10-20T21:49:10.434Z,95.51
2022-10-20T21:51:39.754Z,95.28
2022-10-20T21:54:11.248Z,95.62
2022-10-20T21:56:43.529Z,95.32
2022-10-20T21:59:18.980Z,95.97
2022-10-20T22:01:47.309Z,95.69
2022-10-20T22:04:16.046Z,95.65
2022-10-20T22:06:44.230Z,95.60
2022-10-20T22:09:13.624Z,96.16
2022-10-20T22:11:44.076Z,96.17
2022-10-20T22:14:12.875Z,95.95
2022-10-20T22:16:43.742Z,96.11
2022-10-20T22:19:14.995Z,95.70
2022-10-20T22:21:47.216Z,95.65
2022-10-20T22:24:16.489Z,95.53
2022-10-20T22:26:44.473Z,95.66
2022-10-20T22:29:12.764Z,96.24
2022-10-20T22:31:43.040Z,95.55
2022-10-20T22:34:11.912Z,95.46
2022-10-20T22:36:40.884Z,95.47
2022-10-20T22:39:09.936Z,95.70
2022-10-20T22:41:38.066Z,95.15
2022-10-20T22:44:06.509Z,95.48
2022-10-20T22:46:34.956Z,95.84
2022-10-20T22:49:06.044Z,95.63
2022-10-20T22:51:33.879Z,96.12
2022-10-20T22:54:03.023Z,96.00
2022-10-20T22:56:30.949Z,96.14
2022-10-20T22:59:01.087Z,95.86
2022-10-20T23:01:29.255Z,95.76
2022-10-20T23:03:57.253Z,96.10
2022-10-20T23:06:27.996Z,95.74
2022-10-20T23:08:57.452Z,95.75
2022-10-20T23:11:25.399Z,96.18
2022-10-20T23:13:53.495Z,95.90
2022-10-20T23:16:22.123Z,95.94
2022-10-20T23:18:50.129Z,95.20
2022-10-20T23:21:19.488Z,95.44
2022-10-20T23:23:49.059Z,95.25
2022-10-20T23:26:17.028Z,95.57
2022-10-20T23:28:44.897Z,95.03
2022-10-20T23:31:14.233Z,95.26
2022-10-20T23:33:43.925Z,94.96
2022-10-20T23:36:13.186Z,95.19
2022-10-20T23:38:41.357Z,94.68
2022-10-20T23:41:10.675Z,94.70
2022-10-20T23:43:38.693Z,94.93
2022-10-20T23:46:07.539Z,94.23
2022-10-20T23:48:35.781Z,94.43
2022-10-20T23:51:03.880Z,94.51
2022-10-20T23:53:32.614Z,93.95
2022-10-20T23:56:00.778Z,93.83
2022-10-20T23:58:30.085Z,93.74
